createdAt,value
2023-02-03T00:00:44.730Z,1.38
2023-02-03T00:03:13.271Z,1.41
2023-02-03T00:05:42.714Z,1.40
2023-02-03T00:08:11.776Z,1.44
2023-02-03T00:10:41.100Z,1.40
2023-02-03T00:13:09.578Z,1.43
2023-02-03T00:15:37.997Z,1.43
2023-02-03T00:18:06.544Z,1.33
2023-02-03T00:20:35.251Z,1.22
2023-02-03T00:23:07.484Z,1.19
2023-02-03T00:25:41.453Z,1.21
2023-02-03T00:28:12.796Z,1.18
2023-02-03T00:30:41.398Z,1.18
2023-02-03T00:33:09.719Z,1.22
2023-02-03T00:35:40.471Z,1.17
2023-02-03T00:38:08.465Z,1.12
2023-02-03T00:40:36.848Z,1.07
2023-02-03T00:43:04.768Z,1.04
2023-02-03T00:45:32.671Z,1.05
2023-02-03T00:48:01.170Z,0.99
2023-02-03T00:50:29.716Z,0.98
2023-02-03T00:52:58.309Z,0.92
2023-02-03T00:55:26.717Z,0.89
2023-02-03T00:57:54.874Z,0.90
2023-02-03T01:00:23.124Z,0.89
2023-02-03T01:02:51.359Z,0.88
2023-02-03T01:05:19.714Z,0.92
2023-02-03T01:07:49.026Z,0.90
2023-02-03T01:10:17.596Z,0.95
2023-02-03T01:12:45.793Z,0.95
2023-02-03T01:15:14.741Z,1.01
2023-02-03T01:17:43.570Z,1.04
2023-02-03T01:20:14.064Z,1.10
2023-02-03T01:22:46.371Z,1.25
2023-02-03T01:25:40.225Z,1.34
2023-02-03T01:28:08.918Z,1.41
2023-02-03T01:30:36.995Z,1.47
2023-02-03T01:33:05.097Z,1.52
2023-02-03T01:35:35.430Z,1.52
2023-02-03T01:38:03.686Z,1.52
2023-02-03T01:40:31.810Z,1.52
2023-02-03T01:42:59.946Z,1.56
2023-02-03T01:45:29.335Z,1.57
2023-02-03T01:48:03.794Z,1.64
2023-02-03T01:50:35.317Z,1.65
2023-02-03T01:53:07.592Z,1.57
2023-02-03T01:55:39.112Z,1.64
2023-02-03T01:58:20.720Z,1.64
2023-02-03T02:00:51.814Z,1.66
2023-02-03T02:03:21.940Z,1.66
2023-02-03T02:06:11.906Z,1.62
2023-02-03T02:08:42.171Z,1.63
2023-02-03T02:11:10.401Z,1.65
2023-02-03T02:13:40.295Z,1.65
2023-02-03T02:16:36.429Z,1.59
2023-02-03T02:19:25.237Z,1.61
2023-02-03T02:22:18.079Z,1.67
2023-02-03T02:25:04.373Z,1.69
2023-02-03T02:27:44.727Z,1.70
2023-02-03T02:30:37.803Z,1.69
2023-02-03T02:33:37.276Z,1.71
2023-02-03T02:36:10.441Z,1.58
2023-02-03T02:38:49.718Z,1.59
2023-02-03T02:41:47.049Z,1.56
2023-02-03T02:44:20.080Z,1.60
2023-02-03T02:46:51.093Z,1.58
2023-02-03T02:49:28.529Z,1.61
2023-02-03T02:51:58.560Z,1.65
2023-02-03T02:54:28.650Z,1.67
2023-02-03T02:57:00.356Z,1.64
2023-02-03T02:59:28.415Z,1.67
2023-02-03T03:01:56.721Z,1.71
2023-02-03T03:04:30.033Z,1.75
2023-02-03T03:07:07.719Z,1.74
2023-02-03T03:09:49.406Z,1.76
2023-02-03T03:12:30.419Z,1.75
2023-02-03T03:15:24.560Z,1.74
2023-02-03T03:18:18.167Z,1.75
2023-02-03T03:20:51.426Z,1.77
2023-02-03T03:23:28.801Z,1.73
2023-02-03T03:26:12.860Z,1.78
2023-02-03T03:28:49.527Z,1.75
2023-02-03T03:31:18.726Z,1.72
2023-02-03T03:33:47.319Z,1.71
2023-02-03T03:36:23.716Z,1.74
2023-02-03T03:39:10.415Z,1.71
2023-02-03T03:41:50.101Z,1.70
2023-02-03T03:44:21.692Z,1.69
2023-02-03T03:46:56.960Z,1.70
2023-02-03T03:49:26.391Z,1.74
2023-02-03T03:52:01.971Z,1.81
2023-02-03T03:54:30.803Z,1.68
2023-02-03T03:57:18.398Z,1.77
2023-02-03T03:59:49.201Z,1.72
2023-02-03T04:02:18.788Z,1.69
2023-02-03T04:04:49.048Z,1.69
2023-02-03T04:07:17.595Z,1.64
2023-02-03T04:09:46.878Z,1.64
2023-02-03T04:12:25.304Z,1.60
2023-02-03T04:14:53.794Z,1.64
2023-02-03T04:17:22.230Z,1.67
2023-02-03T04:19:50.514Z,1.65
2023-02-03T04:22:19.085Z,1.60
2023-02-03T04:24:47.424Z,1.62
2023-02-03T04:27:15.530Z,1.65
2023-02-03T04:29:43.826Z,1.58
2023-02-03T04:32:11.970Z,1.55
2023-02-03T04:34:40.164Z,1.51
2023-02-03T04:37:08.914Z,1.48
2023-02-03T04:39:37.539Z,1.46
2023-02-03T04:42:05.751Z,1.50
2023-02-03T04:44:34.372Z,1.45
2023-02-03T04:47:02.682Z,1.49
2023-02-03T04:49:31.060Z,1.45
2023-02-03T04:51:59.015Z,1.44
2023-02-03T04:54:27.095Z,1.46
2023-02-03T04:56:55.947Z,1.43
2023-02-03T04:59:23.913Z,1.42
2023-02-03T05:01:57.644Z,1.47
2023-02-03T05:04:27.524Z,1.39
2023-02-03T05:06:57.893Z,1.45
2023-02-03T05:09:26.429Z,1.45
2023-02-03T05:12:01.587Z,1.47
2023-02-03T05:14:31.790Z,1.54
2023-02-03T05:17:01.186Z,1.55
2023-02-03T05:19:29.091Z,1.56
2023-02-03T05:21:57.100Z,1.58
2023-02-03T05:24:27.528Z,1.55
2023-02-03T05:26:55.696Z,1.59
2023-02-03T05:29:23.685Z,1.67
2023-02-03T05:31:52.160Z,1.59
2023-02-03T05:34:20.623Z,1.61
2023-02-03T05:36:48.848Z,1.59
2023-02-03T05:39:18.719Z,1.62
2023-02-03T05:41:52.533Z,1.60
2023-02-03T05:44:24.928Z,1.62
2023-02-03T05:46:55.194Z,1.59
2023-02-03T05:49:24.401Z,1.56
2023-02-03T05:51:53.897Z,1.55
2023-02-03T05:54:22.583Z,1.62
2023-02-03T05:56:53.648Z,1.61
2023-02-03T05:59:21.798Z,1.62
2023-02-03T06:01:50.048Z,1.61
2023-02-03T06:04:18.505Z,1.64
2023-02-03T06:06:47.992Z,1.71
2023-02-03T06:09:16.148Z,1.73
2023-02-03T06:11:47.434Z,1.79
2023-02-03T06:14:16.005Z,1.88
2023-02-03T06:16:44.893Z,1.95
2023-02-03T06:19:15.226Z,1.97
2023-02-03T06:21:44.367Z,2.02
2023-02-03T06:24:12.870Z,2.09
2023-02-03T06:26:40.856Z,2.10
2023-02-03T06:29:11.106Z,2.13
2023-02-03T06:31:39.716Z,2.14
2023-02-03T06:34:08.045Z,2.04
2023-02-03T06:36:37.019Z,2.18
2023-02-03T06:39:05.089Z,2.19
2023-02-03T06:41:33.300Z,2.36
2023-02-03T06:44:01.398Z,2.42
2023-02-03T06:46:34.346Z,2.41
2023-02-03T06:49:02.761Z,2.49
2023-02-03T06:51:31.005Z,2.61
2023-02-03T06:54:03.911Z,2.68
2023-02-03T06:56:32.533Z,2.76
2023-02-03T06:59:03.476Z,2.74
2023-02-03T07:01:32.211Z,2.93
2023-02-03T07:04:00.847Z,2.93
2023-02-03T07:06:31.199Z,2.95
2023-02-03T07:09:01.487Z,3.02
2023-02-03T07:11:30.924Z,3.25
2023-02-03T07:14:02.257Z,3.38
2023-02-03T07:16:31.521Z,3.46
2023-02-03T07:19:00.673Z,3.67
2023-02-03T07:21:29.428Z,3.88
2023-02-03T07:23:59.985Z,3.95
2023-02-03T07:26:28.442Z,4.16
2023-02-03T07:28:59.005Z,4.15
2023-02-03T07:31:27.437Z,3.98
2023-02-03T07:33:55.547Z,3.97
2023-02-03T07:36:24.747Z,4.03
2023-02-03T07:38:53.191Z,4.11
2023-02-03T07:41:21.414Z,4.01
2023-02-03T07:43:49.570Z,3.99
2023-02-03T07:46:17.931Z,3.85
2023-02-03T07:48:47.168Z,3.80
2023-02-03T07:51:15.232Z,3.85
2023-02-03T07:53:45.655Z,3.84
2023-02-03T07:56:14.088Z,3.85
2023-02-03T07:58:42.408Z,3.88
2023-02-03T08:01:12.702Z,3.87
2023-02-03T08:03:41.640Z,3.88
2023-02-03T08:06:10.847Z,3.88
2023-02-03T08:08:40.351Z,3.87
2023-02-03T08:11:09.214Z,3.86
2023-02-03T08:13:37.211Z,3.75
2023-02-03T08:16:06.600Z,3.66
2023-02-03T08:18:35.328Z,3.76
2023-02-03T08:21:05.245Z,3.82
2023-02-03T08:23:44.647Z,3.94
2023-02-03T08:26:13.007Z,3.99
2023-02-03T08:28:43.657Z,4.00
2023-02-03T08:31:12.918Z,4.02
2023-02-03T08:33:42.025Z,4.12
2023-02-03T08:36:13.549Z,4.21
2023-02-03T08:38:42.518Z,4.47
2023-02-03T08:41:15.994Z,4.94
2023-02-03T08:43:45.316Z,5.19
2023-02-03T08:46:14.263Z,5.37
2023-02-03T08:48:43.654Z,5.43
2023-02-03T08:51:14.881Z,5.41
2023-02-03T08:53:43.398Z,5.24
2023-02-03T08:56:12.753Z,5.11
2023-02-03T08:58:41.352Z,4.86
2023-02-03T09:01:16.035Z,4.68
2023-02-03T09:03:44.571Z,4.73
2023-02-03T09:06:17.088Z,4.79
2023-02-03T09:08:46.717Z,4.89
2023-02-03T09:11:17.257Z,4.96
2023-02-03T09:13:49.162Z,4.86
2023-02-03T09:16:23.889Z,4.69
2023-02-03T09:18:52.436Z,4.59
2023-02-03T09:21:34.658Z,4.44
2023-02-03T09:24:07.874Z,4.43
2023-02-03T09:26:36.186Z,4.36
2023-02-03T09:29:04.822Z,4.46
2023-02-03T09:31:33.915Z,4.60
2023-02-03T09:34:02.934Z,4.67
2023-02-03T09:36:31.345Z,4.74
2023-02-03T09:39:00.783Z,4.87
2023-02-03T09:41:53.803Z,4.95
2023-02-03T09:44:36.650Z,5.02
2023-02-03T09:47:14.080Z,4.97
2023-02-03T09:49:52.942Z,4.90
2023-02-03T09:52:36.465Z,4.85
2023-02-03T09:55:22.639Z,4.90
2023-02-03T09:57:57.429Z,5.18
2023-02-03T10:00:37.627Z,5.42
2023-02-03T10:03:13.246Z,5.56
2023-02-03T10:05:55.003Z,5.94
2023-02-03T10:08:54.089Z,6.20
2023-02-03T10:11:52.694Z,6.50
2023-02-03T10:15:18.068Z,6.81
2023-02-03T10:17:55.804Z,7.08
2023-02-03T10:20:29.629Z,7.07
2023-02-03T10:23:02.080Z,7.07
2023-02-03T10:25:40.027Z,7.10
2023-02-03T10:28:18.366Z,7.18
2023-02-03T10:30:50.194Z,7.12
2023-02-03T10:33:19.664Z,7.14
2023-02-03T10:35:55.804Z,7.12
2023-02-03T10:38:27.691Z,7.22
2023-02-03T10:40:56.237Z,7.34
2023-02-03T10:43:43.369Z,7.17
2023-02-03T10:58:15.741Z,7.31
2023-02-03T11:00:44.132Z,7.29
2023-02-03T11:03:24.235Z,7.41
2023-02-03T11:06:13.837Z,7.59
2023-02-03T11:08:45.024Z,7.68
2023-02-03T11:11:23.893Z,7.67
2023-02-03T11:14:11.533Z,7.80
2023-02-03T11:16:47.627Z,7.91
2023-02-03T11:19:20.590Z,7.78
2023-02-03T11:21:52.283Z,7.88
2023-02-03T11:24:21.688Z,7.77
2023-02-03T11:26:57.401Z,7.92
2023-02-03T11:29:36.364Z,7.92
2023-02-03T11:32:08.359Z,7.99
2023-02-03T11:34:40.000Z,8.04
2023-02-03T11:37:30.925Z,7.80
2023-02-03T11:40:07.950Z,7.55
2023-02-03T11:42:38.600Z,7.48
2023-02-03T11:45:26.234Z,7.49
2023-02-03T11:48:03.152Z,7.54
2023-02-03T11:50:58.103Z,7.58
2023-02-03T11:53:57.792Z,7.56
2023-02-03T11:56:40.167Z,7.70
2023-02-03T11:59:21.222Z,7.86
2023-02-03T12:02:10.665Z,8.12
2023-02-03T12:05:10.346Z,8.08
2023-02-03T12:07:52.808Z,8.03
2023-02-03T12:10:46.255Z,8.06
2023-02-03T12:13:19.425Z,8.09
2023-02-03T12:16:13.044Z,8.01
2023-02-03T12:19:11.722Z,8.11
2023-02-03T12:21:48.250Z,8.15
2023-02-03T12:24:36.222Z,8.21
2023-02-03T12:27:19.933Z,8.33
2023-02-03T12:29:54.433Z,8.28
2023-02-03T12:32:44.542Z,8.12
2023-02-03T12:35:19.038Z,8.02
2023-02-03T12:37:53.044Z,7.92
2023-02-03T12:40:41.971Z,7.90
2023-02-03T12:43:32.340Z,7.89
2023-02-03T12:46:10.598Z,7.88
2023-02-03T12:48:59.715Z,7.83
2023-02-03T12:51:32.322Z,7.78
2023-02-03T12:54:05.920Z,7.71
2023-02-03T12:56:44.673Z,7.58
2023-02-03T12:59:32.667Z,7.49
2023-02-03T13:02:22.797Z,7.39
2023-02-03T13:05:01.066Z,7.45
2023-02-03T13:08:15.504Z,7.41
2023-02-03T13:10:49.088Z,7.29
2023-02-03T13:13:24.619Z,7.14
2023-02-03T13:15:54.600Z,6.99
2023-02-03T13:18:44.561Z,6.75
2023-02-03T13:21:13.472Z,6.62
2023-02-03T13:23:51.786Z,6.50
2023-02-03T13:26:36.180Z,6.37
2023-02-03T13:29:27.754Z,6.31
2023-02-03T13:32:18.329Z,6.22
2023-02-03T13:35:16.553Z,6.17
2023-02-03T13:38:05.282Z,6.08
2023-02-03T13:40:57.243Z,6.01
2023-02-03T13:43:38.743Z,5.93
2023-02-03T13:46:33.268Z,5.88
2023-02-03T13:49:04.319Z,5.86
2023-02-03T13:51:36.761Z,5.86
2023-02-03T13:54:14.991Z,5.87
2023-02-03T13:56:55.298Z,5.79
2023-02-03T13:59:33.307Z,5.73
2023-02-03T14:02:22.458Z,5.70
2023-02-03T14:05:01.540Z,5.63
2023-02-03T14:07:41.807Z,5.54
2023-02-03T14:10:15.401Z,5.46
2023-02-03T14:12:52.278Z,5.33
2023-02-03T14:15:26.725Z,5.35
2023-02-03T14:17:56.370Z,5.34
2023-02-03T14:20:27.702Z,5.29
2023-02-03T14:23:00.950Z,5.21
2023-02-03T14:25:30.288Z,5.16
2023-02-03T14:28:04.569Z,5.09
2023-02-03T14:30:33.966Z,4.99
2023-02-03T14:33:03.363Z,4.96
2023-02-03T14:35:36.427Z,4.88
2023-02-03T14:38:13.655Z,4.88
2023-02-03T14:40:55.199Z,4.85
2023-02-03T14:43:38.234Z,4.78
2023-02-03T14:46:21.566Z,4.75
2023-02-03T14:49:10.837Z,4.78
2023-02-03T14:52:00.872Z,4.71
2023-02-03T14:54:34.572Z,4.64
2023-02-03T14:57:24.212Z,4.63
2023-02-03T15:00:06.115Z,4.74
2023-02-03T15:02:35.145Z,4.63
2023-02-03T15:05:18.097Z,4.49
2023-02-03T15:07:50.880Z,4.29
2023-02-03T15:10:24.960Z,4.17
2023-02-03T15:12:54.949Z,4.02
2023-02-03T15:15:36.545Z,3.87
2023-02-03T15:18:26.490Z,3.71
2023-02-03T15:20:57.338Z,3.66
2023-02-03T15:23:37.330Z,3.57
2023-02-03T15:26:14.451Z,3.48
2023-02-03T15:28:42.688Z,3.43
2023-02-03T15:31:23.030Z,3.31
2023-02-03T15:33:51.870Z,3.34
2023-02-03T15:36:26.456Z,3.36
2023-02-03T15:39:02.384Z,3.31
2023-02-03T15:41:30.785Z,3.33
2023-02-03T15:44:09.245Z,3.35
2023-02-03T15:46:44.448Z,3.37
2023-02-03T15:49:37.506Z,3.31
2023-02-03T15:52:16.826Z,3.28
2023-02-03T15:54:53.822Z,3.16
2023-02-03T15:57:25.687Z,2.99
2023-02-03T16:00:04.816Z,2.97
2023-02-03T16:02:43.200Z,2.95
2023-02-03T16:05:28.839Z,2.96
2023-02-03T16:07:57.645Z,2.91
2023-02-03T16:10:31.931Z,2.85
2023-02-03T16:13:20.598Z,2.82
2023-02-03T16:16:01.656Z,2.76
2023-02-03T16:18:30.200Z,2.73
2023-02-03T16:20:58.256Z,2.68
2023-02-03T16:23:30.064Z,2.63
2023-02-03T16:26:19.025Z,2.56
2023-02-03T16:29:27.470Z,2.45
2023-02-03T16:32:14.350Z,2.42
2023-02-03T16:35:02.342Z,2.37
2023-02-03T16:37:53.649Z,2.35
2023-02-03T16:40:42.678Z,2.33
2023-02-03T16:43:33.548Z,2.32
2023-02-03T16:46:30.748Z,2.28
2023-02-03T16:49:17.641Z,2.31
2023-02-03T16:51:46.037Z,2.33
2023-02-03T16:54:15.604Z,2.37
2023-02-03T16:56:44.369Z,2.36
2023-02-03T16:59:12.709Z,2.30
2023-02-03T17:01:40.994Z,2.25
2023-02-03T17:04:11.449Z,2.16
2023-02-03T17:06:41.220Z,2.12
2023-02-03T17:09:09.316Z,2.08
2023-02-03T17:11:40.391Z,2.00
2023-02-03T17:14:09.090Z,1.95
2023-02-03T17:16:37.893Z,1.94
2023-02-03T17:19:06.318Z,1.90
2023-02-03T17:21:34.705Z,1.87
2023-02-03T17:24:05.822Z,1.86
2023-02-03T17:26:34.639Z,1.81
2023-02-03T17:29:04.327Z,1.79
2023-02-03T17:31:36.911Z,1.74
2023-02-03T17:34:05.644Z,1.69
2023-02-03T17:36:34.175Z,1.63
2023-02-03T17:55:33.865Z,1.74
2023-02-03T17:58:02.634Z,1.91
2023-02-03T18:00:31.224Z,2.03
2023-02-03T18:03:00.258Z,2.14
2023-02-03T18:05:29.261Z,2.27
2023-02-03T18:08:03.086Z,2.35
2023-02-03T18:10:37.621Z,2.41
2023-02-03T18:13:11.034Z,2.42
2023-02-03T18:15:40.131Z,2.41
2023-02-03T18:18:08.390Z,2.42
2023-02-03T18:20:36.678Z,2.42
2023-02-03T18:23:05.095Z,2.37
2023-02-03T18:25:35.867Z,2.37
2023-02-03T18:28:05.302Z,2.37
2023-02-03T18:30:36.922Z,2.33
2023-02-03T18:33:05.202Z,2.27
2023-02-03T18:35:35.201Z,2.14
2023-02-03T18:38:03.729Z,2.00
2023-02-03T18:40:32.557Z,1.93
2023-02-03T18:43:02.815Z,1.88
2023-02-03T18:45:34.599Z,1.85
2023-02-03T18:48:03.088Z,1.83
2023-02-03T18:50:33.650Z,1.89
2023-02-03T18:53:02.100Z,2.04
2023-02-03T18:55:31.330Z,2.19
2023-02-03T18:57:59.594Z,2.28
2023-02-03T19:00:31.123Z,2.40
2023-02-03T19:02:59.357Z,2.44
2023-02-03T19:05:31.966Z,2.45
2023-02-03T19:08:03.705Z,2.48
2023-02-03T19:10:32.874Z,2.50
2023-02-03T19:13:02.866Z,2.55
2023-02-03T19:15:30.953Z,2.57
2023-02-03T19:17:59.106Z,2.56
2023-02-03T19:20:27.611Z,2.61
2023-02-03T19:22:57.190Z,2.61
2023-02-03T19:25:26.191Z,2.60
2023-02-03T19:27:54.765Z,2.59
2023-02-03T19:30:23.366Z,2.52
2023-02-03T19:32:51.682Z,2.40
2023-02-03T19:35:20.160Z,2.23
2023-02-03T19:37:50.120Z,2.11
2023-02-03T19:40:19.475Z,2.05
2023-02-03T19:42:50.637Z,1.94
2023-02-03T19:45:18.920Z,1.97
2023-02-03T19:47:47.414Z,1.97
2023-02-03T19:50:25.043Z,2.03
2023-02-03T19:52:53.218Z,2.05
2023-02-03T19:55:21.428Z,2.04
2023-02-03T19:57:50.223Z,2.06
2023-02-03T20:00:21.080Z,2.08
2023-02-03T20:02:50.294Z,2.08
2023-02-03T20:05:18.437Z,2.10
2023-02-03T20:07:46.562Z,2.12
2023-02-03T20:10:15.363Z,2.21
2023-02-03T20:12:50.701Z,2.28
2023-02-03T20:15:19.414Z,2.32
2023-02-03T20:17:47.743Z,2.27
2023-02-03T20:20:20.333Z,2.21
2023-02-03T20:22:49.139Z,2.16
2023-02-03T20:25:17.439Z,2.09
2023-02-03T20:27:45.993Z,1.95
2023-02-03T20:30:14.692Z,1.86
2023-02-03T20:32:46.083Z,1.80
2023-02-03T20:38:07.435Z,1.78
2023-02-03T20:40:36.962Z,1.71
2023-02-03T20:43:19.382Z,1.70
2023-02-03T20:45:49.837Z,1.67
2023-02-03T20:48:20.166Z,1.60
2023-02-03T20:50:49.481Z,1.60
2023-02-03T20:53:24.831Z,1.54
2023-02-03T20:55:58.935Z,1.46
2023-02-03T20:58:33.084Z,1.53
2023-02-03T21:01:01.903Z,1.47
2023-02-03T21:03:49.311Z,1.56
2023-02-03T21:06:20.306Z,1.62
2023-02-03T21:08:49.645Z,1.66
2023-02-03T21:11:27.381Z,1.75
2023-02-03T21:13:56.824Z,1.74
2023-02-03T21:16:34.200Z,1.79
2023-02-03T21:19:04.132Z,1.85
2023-02-03T21:21:40.012Z,1.88
2023-02-03T21:24:29.228Z,1.86
2023-02-03T21:26:59.106Z,1.82
2023-02-03T21:29:33.954Z,1.91
2023-02-03T21:32:03.824Z,1.90
2023-02-03T21:34:38.532Z,1.82
2023-02-03T21:37:25.040Z,1.88
2023-02-03T21:39:54.474Z,1.90
2023-02-03T21:42:42.169Z,1.92
2023-02-03T21:45:25.682Z,1.85
2023-02-03T21:48:19.827Z,1.74
2023-02-03T21:50:48.194Z,1.61
2023-02-03T21:53:21.701Z,1.51
2023-02-03T21:55:50.395Z,1.39
2023-02-03T21:58:27.170Z,1.30
2023-02-03T22:01:00.611Z,1.22
2023-02-03T22:03:46.336Z,1.14
2023-02-03T22:06:20.092Z,1.12
2023-02-03T22:08:50.647Z,1.09
2023-02-03T22:11:20.263Z,1.13
2023-02-03T22:13:48.307Z,1.20
2023-02-03T22:16:17.626Z,1.23
2023-02-03T22:18:49.262Z,1.23
2023-02-03T22:21:18.843Z,1.19
2023-02-03T22:23:50.427Z,1.16
2023-02-03T22:26:19.822Z,1.21
2023-02-03T22:28:48.517Z,1.30
2023-02-03T22:31:18.872Z,1.37
2023-02-03T22:33:49.161Z,1.46
2023-02-03T22:36:17.606Z,1.48
2023-02-03T22:38:45.620Z,1.56
2023-02-03T22:41:14.029Z,1.62
2023-02-03T22:43:44.598Z,1.63
2023-02-03T22:46:13.717Z,1.59
2023-02-03T22:48:42.530Z,1.45
2023-02-03T22:51:10.776Z,1.45
2023-02-03T22:53:40.071Z,1.43
2023-02-03T22:56:08.643Z,1.41
2023-02-03T22:58:37.393Z,1.32
2023-02-03T23:01:06.311Z,1.28
2023-02-03T23:03:37.560Z,1.28
2023-02-03T23:06:06.305Z,1.24
2023-02-03T23:08:34.893Z,1.27
2023-02-03T23:11:03.477Z,1.31
2023-02-03T23:13:34.091Z,1.35
2023-02-03T23:16:02.865Z,1.37
2023-02-03T23:18:31.416Z,1.42
2023-02-03T23:21:00.047Z,1.52
2023-02-03T23:23:29.545Z,1.57
2023-02-03T23:25:57.815Z,1.65
2023-02-03T23:28:25.784Z,1.36
2023-02-03T23:30:53.908Z,1.25
2023-02-03T23:33:24.268Z,1.27
2023-02-03T23:35:53.467Z,1.21
2023-02-03T23:38:22.398Z,1.18
2023-02-03T23:40:50.614Z,1.22
2023-02-03T23:43:19.250Z,1.13
2023-02-03T23:45:50.518Z,1.11
2023-02-03T23:48:19.065Z,1.12
2023-02-03T23:50:47.587Z,1.15
2023-02-03T23:53:15.672Z,1.15
2023-02-03T23:55:44.200Z,1.12
2023-02-03T23:58:12.724Z,1.19
